createdAt,value
2022-08-16T00:00:22.587Z,21.20
2022-08-16T00:02:51.883Z,21.20
2022-08-16T00:05:21.381Z,21.20
2022-08-16T00:07:50.113Z,21.20
2022-08-16T00:10:27.304Z,21.10
2022-08-16T00:12:56.872Z,21.10
2022-08-16T00:15:51.588Z,21.00
2022-08-16T00:18:19.127Z,21.00
2022-08-16T00:20:50.846Z,20.90
2022-08-16T00:23:24.580Z,20.70
2022-08-16T00:26:35.577Z,20.60
2022-08-16T00:29:08.888Z,20.40
2022-08-16T00:32:00.089Z,20.40
2022-08-16T00:34:43.229Z,20.40
2022-08-16T00:37:16.928Z,20.30
2022-08-16T00:39:47.674Z,20.30
2022-08-16T00:42:30.581Z,20.30
2022-08-16T00:45:19.644Z,20.30
2022-08-16T00:47:53.943Z,20.30
2022-08-16T00:50:35.946Z,20.30
2022-08-16T00:53:09.755Z,20.20
2022-08-16T00:55:40.595Z,20.10
2022-08-16T00:58:13.080Z,20.10
2022-08-16T01:00:47.085Z,20.10
2022-08-16T01:03:31.625Z,20.00
2022-08-16T01:06:32.531Z,19.90
2022-08-16T01:08:55.342Z,19.80
2022-08-16T01:11:29.526Z,19.80
2022-08-16T01:16:43.529Z,19.90
2022-08-16T01:19:20.471Z,19.80
2022-08-16T01:22:47.999Z,19.80
2022-08-16T01:25:00.883Z,19.80
2022-08-16T01:27:38.544Z,19.80
2022-08-16T01:30:19.657Z,19.80
2022-08-16T01:33:01.754Z,19.70
2022-08-16T01:35:36.781Z,19.70
2022-08-16T01:38:25.890Z,19.70
2022-08-16T01:41:01.877Z,19.70
2022-08-16T01:43:31.728Z,19.70
2022-08-16T01:46:37.816Z,19.70
2022-08-16T01:49:08.119Z,19.60
2022-08-16T01:51:39.411Z,19.50
2022-08-16T01:54:07.792Z,19.30
2022-08-16T01:56:36.109Z,19.10
2022-08-16T01:59:07.891Z,19.00
2022-08-16T02:01:43.683Z,18.90
2022-08-16T02:04:40.026Z,18.90
2022-08-16T02:07:11.391Z,18.90
2022-08-16T02:09:40.076Z,18.90
2022-08-16T02:12:49.462Z,18.90
2022-08-16T02:14:57.573Z,19.00
2022-08-16T02:17:28.426Z,19.00
2022-08-16T02:19:58.457Z,19.00
2022-08-16T02:22:46.560Z,19.00
2022-08-16T02:25:16.311Z,19.00
2022-08-16T02:27:47.971Z,19.00
2022-08-16T02:30:36.696Z,19.00
2022-08-16T02:33:12.812Z,19.00
2022-08-16T02:35:53.765Z,18.90
2022-08-16T02:38:23.480Z,18.90
2022-08-16T02:40:51.938Z,18.80
2022-08-16T02:43:27.313Z,18.70
2022-08-16T02:45:56.374Z,18.60
2022-08-16T02:48:28.523Z,18.50
2022-08-16T02:51:06.333Z,18.50
2022-08-16T02:53:44.666Z,18.50
2022-08-16T02:56:17.778Z,18.40
2022-08-16T02:58:50.890Z,18.40
2022-08-16T03:01:25.271Z,18.30
2022-08-16T03:04:46.323Z,18.20
2022-08-16T03:06:56.337Z,18.20
2022-08-16T03:09:28.499Z,18.20
2022-08-16T03:11:57.768Z,18.10
2022-08-16T03:14:25.595Z,18.10
2022-08-16T03:16:59.875Z,18.10
2022-08-16T03:19:48.828Z,18.10
2022-08-16T03:22:28.464Z,18.00
2022-08-16T03:25:02.231Z,17.90
2022-08-16T03:27:32.779Z,17.80
2022-08-16T03:30:16.508Z,17.80
2022-08-16T03:32:51.904Z,17.80
2022-08-16T03:35:22.734Z,17.80
2022-08-16T03:38:03.072Z,17.80
2022-08-16T03:40:34.126Z,17.80
2022-08-16T03:43:20.814Z,17.90
2022-08-16T03:45:52.322Z,17.90
2022-08-16T03:48:21.666Z,17.90
2022-08-16T03:51:08.555Z,17.90
2022-08-16T03:53:38.348Z,17.80
2022-08-16T03:56:19.578Z,17.80
2022-08-16T03:58:48.329Z,17.80
2022-08-16T04:01:18.031Z,17.80
2022-08-16T04:03:45.372Z,17.80
2022-08-16T04:06:13.489Z,17.80
2022-08-16T04:08:43.640Z,17.90
2022-08-16T04:11:16.376Z,17.90
2022-08-16T04:14:01.337Z,17.90
2022-08-16T04:16:34.424Z,17.90
2022-08-16T04:19:05.014Z,18.00
2022-08-16T04:21:46.154Z,18.10
2022-08-16T04:24:15.918Z,18.10
2022-08-16T04:26:46.080Z,18.10
2022-08-16T04:29:23.212Z,18.00
2022-08-16T04:31:56.890Z,18.00
2022-08-16T04:34:28.019Z,18.00
2022-08-16T04:36:56.945Z,18.10
2022-08-16T04:39:45.678Z,18.20
2022-08-16T04:42:16.937Z,18.20
2022-08-16T04:44:53.673Z,18.20
2022-08-16T04:47:33.187Z,18.30
2022-08-16T04:50:09.697Z,18.50
2022-08-16T04:52:38.197Z,18.60
2022-08-16T04:55:11.934Z,18.60
2022-08-16T04:57:41.216Z,18.70
2022-08-16T05:00:32.331Z,18.90
2022-08-16T05:03:08.532Z,19.10
2022-08-16T05:05:55.433Z,19.20
2022-08-16T05:08:28.855Z,19.10
2022-08-16T05:11:05.431Z,19.20
2022-08-16T05:13:40.880Z,19.30
2022-08-16T05:16:30.941Z,19.40
2022-08-16T05:19:00.935Z,19.60
2022-08-16T05:21:35.980Z,19.70
2022-08-16T05:24:07.654Z,19.90
2022-08-16T05:26:40.940Z,20.10
2022-08-16T05:29:15.416Z,20.20
2022-08-16T05:31:44.234Z,20.40
2022-08-16T05:34:19.605Z,20.50
2022-08-16T05:36:51.523Z,20.70
2022-08-16T05:39:20.488Z,20.80
2022-08-16T05:41:49.085Z,20.90
2022-08-16T05:44:25.089Z,21.00
2022-08-16T05:46:55.907Z,21.10
2022-08-16T05:49:24.511Z,21.30
2022-08-16T05:51:53.288Z,21.60
2022-08-16T05:54:25.693Z,21.80
2022-08-16T05:56:54.660Z,22.00
2022-08-16T05:59:23.755Z,22.30
2022-08-16T06:01:52.243Z,22.50
2022-08-16T06:04:35.260Z,22.70
2022-08-16T06:07:08.951Z,22.80
2022-08-16T06:09:43.453Z,22.80
2022-08-16T06:12:26.332Z,23.00
2022-08-16T06:14:59.342Z,23.10
2022-08-16T06:17:42.928Z,23.30
2022-08-16T06:20:25.600Z,23.40
2022-08-16T06:23:03.626Z,23.50
2022-08-16T06:25:35.830Z,23.70
2022-08-16T06:28:09.471Z,23.90
2022-08-16T06:30:44.125Z,24.00
2022-08-16T06:33:22.694Z,24.20
2022-08-16T06:35:55.002Z,24.50
2022-08-16T06:38:33.696Z,24.70
2022-08-16T06:41:12.341Z,25.00
2022-08-16T06:43:41.247Z,25.30
2022-08-16T06:46:21.886Z,25.50
2022-08-16T06:48:51.767Z,25.70
2022-08-16T06:51:19.433Z,26.00
2022-08-16T06:53:52.767Z,26.10
2022-08-16T06:56:23.406Z,26.10
2022-08-16T06:58:52.876Z,26.10
2022-08-16T07:01:43.102Z,26.20
2022-08-16T07:04:10.989Z,26.40
2022-08-16T07:06:43.229Z,26.50
2022-08-16T07:09:12.445Z,26.60
2022-08-16T07:11:48.271Z,26.90
2022-08-16T07:14:25.193Z,27.00
2022-08-16T07:16:57.918Z,27.20
2022-08-16T07:19:33.587Z,27.40
2022-08-16T07:22:38.650Z,27.60
2022-08-16T07:25:03.506Z,27.70
2022-08-16T07:27:32.019Z,28.00
2022-08-16T07:30:01.206Z,28.20
2022-08-16T07:32:31.676Z,28.40
2022-08-16T07:34:59.237Z,28.70
2022-08-16T07:37:26.583Z,28.80
2022-08-16T07:39:54.934Z,28.90
2022-08-16T07:42:34.703Z,28.90
2022-08-16T07:45:07.688Z,28.90
2022-08-16T07:47:37.969Z,28.90
2022-08-16T07:50:07.696Z,29.20
2022-08-16T07:52:38.948Z,29.40
2022-08-16T07:55:08.572Z,29.60
2022-08-16T07:57:44.356Z,29.80
2022-08-16T08:00:26.387Z,29.90
2022-08-16T08:02:57.044Z,30.10
2022-08-16T08:05:35.703Z,30.40
2022-08-16T08:08:11.455Z,30.60
2022-08-16T08:10:53.123Z,30.80
2022-08-16T08:13:20.472Z,31.00
2022-08-16T08:16:07.925Z,31.20
2022-08-16T08:18:50.266Z,31.20
2022-08-16T08:21:27.635Z,31.20
2022-08-16T08:24:12.755Z,31.30
2022-08-16T08:26:42.856Z,31.50
2022-08-16T08:29:10.804Z,31.60
2022-08-16T08:31:42.593Z,31.80
2022-08-16T08:34:12.583Z,31.90
2022-08-16T08:36:40.326Z,32.00
2022-08-16T08:39:12.855Z,32.10
2022-08-16T08:41:42.805Z,32.20
2022-08-16T08:44:28.663Z,32.10
2022-08-16T08:47:10.899Z,32.30
2022-08-16T08:49:46.987Z,32.40
2022-08-16T08:52:34.515Z,32.40
2022-08-16T08:55:13.503Z,32.50
2022-08-16T08:57:43.369Z,32.80
2022-08-16T09:00:14.134Z,32.90
2022-08-16T09:02:44.417Z,33.10
2022-08-16T09:05:16.254Z,33.40
2022-08-16T09:08:00.386Z,33.60
2022-08-16T09:10:31.297Z,33.70
2022-08-16T09:12:59.854Z,33.90
2022-08-16T09:15:33.100Z,34.00
2022-08-16T09:18:26.439Z,33.70
2022-08-16T09:20:59.139Z,33.70
2022-08-16T09:23:29.719Z,33.80
2022-08-16T09:25:57.361Z,33.80
2022-08-16T09:29:15.048Z,33.90
2022-08-16T09:31:16.338Z,33.90
2022-08-16T09:33:44.770Z,33.90
2022-08-16T09:36:32.082Z,34.10
2022-08-16T09:39:02.602Z,34.20
2022-08-16T09:41:30.518Z,34.30
2022-08-16T09:44:02.299Z,34.50
2022-08-16T09:46:45.267Z,34.80
2022-08-16T09:49:19.684Z,35.00
2022-08-16T09:51:53.756Z,35.00
2022-08-16T09:54:32.592Z,35.00
2022-08-16T09:57:01.007Z,35.10
2022-08-16T09:59:30.756Z,35.20
2022-08-16T10:01:58.407Z,35.20
2022-08-16T10:04:30.407Z,35.00
2022-08-16T10:07:14.758Z,34.60
2022-08-16T10:09:54.548Z,34.50
2022-08-16T10:12:43.918Z,34.50
2022-08-16T10:15:15.361Z,34.90
2022-08-16T10:18:00.151Z,34.50
2022-08-16T10:20:34.063Z,34.60
2022-08-16T10:23:07.083Z,35.10
2022-08-16T10:27:19.946Z,35.40
2022-08-16T10:28:29.569Z,35.30
2022-08-16T10:30:59.586Z,35.30
2022-08-16T10:33:29.734Z,35.60
2022-08-16T10:36:03.995Z,35.80
2022-08-16T10:38:36.753Z,35.70
2022-08-16T10:41:10.258Z,35.90
2022-08-16T10:43:39.518Z,36.30
2022-08-16T10:46:40.166Z,36.50
2022-08-16T10:48:56.930Z,36.60
2022-08-16T10:51:33.522Z,36.30
2022-08-16T10:54:02.977Z,36.30
2022-08-16T10:56:52.187Z,36.40
2022-08-16T10:59:44.036Z,36.40
2022-08-16T11:02:58.461Z,36.50
2022-08-16T11:05:06.484Z,36.60
2022-08-16T11:07:51.920Z,36.70
2022-08-16T11:19:05.868Z,37.80
2022-08-16T11:22:38.597Z,38.20
2022-08-16T11:24:39.486Z,38.50
2022-08-16T11:27:22.904Z,38.50
2022-08-16T11:29:55.214Z,38.80
2022-08-16T11:32:33.676Z,39.00
2022-08-16T11:35:13.812Z,39.10
2022-08-16T11:40:40.881Z,38.80
2022-08-16T11:43:12.013Z,38.80
2022-08-16T11:45:42.414Z,38.50
2022-08-16T11:48:10.732Z,38.70
2022-08-16T11:50:38.296Z,38.70
2022-08-16T11:53:08.130Z,38.50
2022-08-16T11:55:38.405Z,38.40
2022-08-16T11:58:10.049Z,38.50
2022-08-16T12:00:50.504Z,39.00
2022-08-16T12:03:31.592Z,39.30
2022-08-16T12:06:10.867Z,39.40
2022-08-16T12:08:41.327Z,39.10
2022-08-16T12:11:11.741Z,38.80
2022-08-16T12:13:40.882Z,38.70
2022-08-16T12:16:09.453Z,38.50
2022-08-16T12:18:38.440Z,37.60
2022-08-16T12:21:07.782Z,37.20
2022-08-16T12:23:38.009Z,37.10
2022-08-16T12:26:06.259Z,36.90
2022-08-16T12:28:54.215Z,36.30
2022-08-16T12:31:23.239Z,35.60
2022-08-16T12:33:54.366Z,35.10
2022-08-16T12:36:26.595Z,34.60
2022-08-16T12:38:57.618Z,34.10
2022-08-16T12:41:26.287Z,33.70
2022-08-16T12:43:57.061Z,33.80
2022-08-16T12:46:28.855Z,34.00
2022-08-16T12:48:58.697Z,33.90
2022-08-16T12:51:59.468Z,33.60
2022-08-16T12:54:28.488Z,33.30
2022-08-16T12:56:56.549Z,33.20
2022-08-16T12:59:24.140Z,33.30
2022-08-16T13:01:58.023Z,33.20
2022-08-16T13:04:27.084Z,33.00
2022-08-16T13:06:55.153Z,32.70
2022-08-16T13:09:26.055Z,32.60
2022-08-16T13:12:09.677Z,32.50
2022-08-16T13:14:41.540Z,32.50
2022-08-16T13:17:18.855Z,32.70
2022-08-16T13:20:07.706Z,32.90
2022-08-16T13:22:44.950Z,33.00
2022-08-16T13:25:20.683Z,33.20
2022-08-16T13:28:02.245Z,33.10
2022-08-16T13:30:41.743Z,32.80
2022-08-16T13:33:13.295Z,32.50
2022-08-16T13:35:45.858Z,32.50
2022-08-16T13:38:25.719Z,32.40
2022-08-16T13:40:57.488Z,32.40
2022-08-16T13:43:27.199Z,32.50
2022-08-16T13:45:56.623Z,32.60
2022-08-16T13:48:26.237Z,32.60
2022-08-16T13:50:56.341Z,32.60
2022-08-16T13:53:25.992Z,32.60
2022-08-16T13:55:58.975Z,32.40
2022-08-16T13:58:36.533Z,32.20
2022-08-16T14:01:09.769Z,32.10
2022-08-16T14:03:41.216Z,32.20
2022-08-16T14:06:10.549Z,32.40
2022-08-16T14:08:42.173Z,32.50
2022-08-16T14:11:12.459Z,32.50
2022-08-16T14:13:42.369Z,32.30
2022-08-16T14:16:24.213Z,32.40
2022-08-16T14:18:53.498Z,32.50
2022-08-16T14:21:23.904Z,32.50
2022-08-16T14:23:52.464Z,32.70
2022-08-16T14:26:21.561Z,32.80
2022-08-16T14:28:52.801Z,32.80
2022-08-16T14:31:22.154Z,32.70
2022-08-16T14:33:51.059Z,32.70
2022-08-16T14:36:18.729Z,32.70
2022-08-16T14:38:57.814Z,32.80
2022-08-16T14:41:26.298Z,32.90
2022-08-16T14:43:53.898Z,32.90
2022-08-16T14:46:21.754Z,32.90
2022-08-16T14:48:49.740Z,32.90
2022-08-16T14:51:17.155Z,32.80
2022-08-16T14:53:45.417Z,32.60
2022-08-16T14:56:17.306Z,32.50
2022-08-16T14:59:01.351Z,32.50
2022-08-16T15:01:57.740Z,32.40
2022-08-16T15:04:39.976Z,32.30
2022-08-16T15:07:05.261Z,32.10
2022-08-16T15:09:32.914Z,32.00
2022-08-16T15:12:26.736Z,32.00
2022-08-16T15:14:58.236Z,31.90
2022-08-16T15:17:40.466Z,31.80
2022-08-16T15:20:09.202Z,31.80
2022-08-16T15:22:45.291Z,31.70
2022-08-16T15:25:16.121Z,31.70
2022-08-16T15:27:44.169Z,31.80
2022-08-16T15:31:00.591Z,31.90
2022-08-16T15:33:12.560Z,31.90
2022-08-16T15:35:40.392Z,31.70
2022-08-16T15:38:08.903Z,31.70
2022-08-16T15:40:56.899Z,31.60
2022-08-16T15:43:39.297Z,31.50
2022-08-16T15:46:35.628Z,31.40
2022-08-16T15:49:16.009Z,31.30
2022-08-16T15:51:45.479Z,31.20
2022-08-16T15:54:29.486Z,31.20
2022-08-16T15:57:09.663Z,31.10
2022-08-16T15:59:48.991Z,31.00
2022-08-16T16:02:29.543Z,30.90
2022-08-16T16:05:09.702Z,30.90
2022-08-16T16:07:40.896Z,30.90
2022-08-16T16:10:23.380Z,30.90
2022-08-16T16:13:01.996Z,30.80
2022-08-16T16:15:33.646Z,30.80
2022-08-16T16:18:05.103Z,30.80
2022-08-16T16:20:43.975Z,30.80
2022-08-16T16:23:11.757Z,30.70
2022-08-16T16:25:43.960Z,30.70
2022-08-16T16:29:06.100Z,30.60
2022-08-16T16:31:11.716Z,30.60
2022-08-16T16:33:43.384Z,30.60
2022-08-16T16:36:13.878Z,30.60
2022-08-16T16:38:44.507Z,30.50
2022-08-16T16:41:12.292Z,30.40
2022-08-16T16:43:43.664Z,30.40
2022-08-16T16:46:32.673Z,30.30
2022-08-16T16:49:05.440Z,30.20
2022-08-16T16:51:40.857Z,30.20
2022-08-16T16:54:12.832Z,30.10
2022-08-16T16:56:45.984Z,30.10
2022-08-16T16:59:18.800Z,30.00
2022-08-16T17:01:59.385Z,29.90
2022-08-16T17:04:32.647Z,29.90
2022-08-16T17:07:03.916Z,29.90
2022-08-16T17:09:40.245Z,29.80
2022-08-16T17:12:14.602Z,29.80
2022-08-16T17:14:54.514Z,29.70
2022-08-16T17:17:22.341Z,29.60
2022-08-16T17:19:51.076Z,29.50
2022-08-16T17:22:20.516Z,29.50
2022-08-16T17:24:52.506Z,29.40
2022-08-16T17:27:32.094Z,29.30
2022-08-16T17:30:29.361Z,29.20
2022-08-16T17:33:13.804Z,29.20
2022-08-16T17:35:55.303Z,29.10
2022-08-16T17:38:38.965Z,29.00
2022-08-16T17:41:12.273Z,28.90
2022-08-16T17:43:44.289Z,28.80
2022-08-16T17:46:50.715Z,28.80
2022-08-16T17:49:01.122Z,28.70
2022-08-16T17:51:28.865Z,28.60
2022-08-16T17:53:57.120Z,28.50
2022-08-16T17:56:24.518Z,28.40
2022-08-16T17:58:52.241Z,28.40
2022-08-16T18:01:25.862Z,28.30
2022-08-16T18:04:07.283Z,28.20
2022-08-16T18:06:37.177Z,28.00
2022-08-16T18:09:05.212Z,27.90
2022-08-16T18:11:40.744Z,27.90
2022-08-16T18:14:09.951Z,27.70
2022-08-16T18:16:37.321Z,27.50
2022-08-16T18:19:04.707Z,27.20
2022-08-16T18:21:50.457Z,26.90
2022-08-16T18:24:19.312Z,26.80
2022-08-16T18:26:47.167Z,26.70
2022-08-16T18:29:14.595Z,26.70
2022-08-16T18:31:42.133Z,26.60
2022-08-16T18:34:09.902Z,26.60
2022-08-16T18:36:38.106Z,26.50
2022-08-16T18:39:06.180Z,26.50
2022-08-16T18:41:37.397Z,26.40
2022-08-16T18:44:24.932Z,26.40
2022-08-16T18:46:55.571Z,26.30
2022-08-16T18:49:23.007Z,26.20
2022-08-16T18:51:51.162Z,26.10
2022-08-16T18:54:19.256Z,26.10
2022-08-16T18:56:55.176Z,26.00
2022-08-16T18:59:26.223Z,26.00
2022-08-16T19:01:54.196Z,25.90
2022-08-16T19:04:55.562Z,25.80
2022-08-16T19:07:16.669Z,25.80
2022-08-16T19:09:44.042Z,25.70
2022-08-16T19:12:11.469Z,25.70
2022-08-16T19:14:45.736Z,25.50
2022-08-16T19:17:13.180Z,25.40
2022-08-16T19:19:40.596Z,25.30
2022-08-16T19:22:08.688Z,25.20
2022-08-16T19:24:36.096Z,25.20
2022-08-16T19:27:10.342Z,25.00
2022-08-16T19:29:38.035Z,25.00
2022-08-16T19:32:15.214Z,24.90
2022-08-16T19:34:42.827Z,24.90
2022-08-16T19:37:10.404Z,24.80
2022-08-16T19:39:39.228Z,24.70
2022-08-16T19:42:18.830Z,24.70
2022-08-16T19:44:47.715Z,24.60
2022-08-16T19:47:15.799Z,24.50
2022-08-16T19:49:43.554Z,24.50
2022-08-16T19:52:15.182Z,24.40
2022-08-16T19:54:43.198Z,24.40
2022-08-16T19:57:11.668Z,24.30
2022-08-16T19:59:40.960Z,24.30
2022-08-16T20:02:36.178Z,24.20
2022-08-16T20:05:06.275Z,24.20
2022-08-16T20:07:34.152Z,24.20
2022-08-16T20:10:02.441Z,24.10
2022-08-16T20:12:29.925Z,24.00
2022-08-16T20:15:00.543Z,23.80
2022-08-16T20:17:27.846Z,23.80
2022-08-16T20:19:55.142Z,23.70
2022-08-16T20:22:51.908Z,23.70
2022-08-16T20:25:16.561Z,23.60
2022-08-16T20:27:45.144Z,23.60
2022-08-16T20:30:14.734Z,23.60
2022-08-16T20:32:44.447Z,23.50
2022-08-16T20:35:14.943Z,23.50
2022-08-16T20:37:43.114Z,23.50
2022-08-16T20:40:33.406Z,23.40
2022-08-16T20:43:06.993Z,23.40
2022-08-16T20:45:35.613Z,23.30
2022-08-16T20:48:03.813Z,23.20
2022-08-16T20:50:31.551Z,23.10
2022-08-16T20:52:59.306Z,23.10
2022-08-16T20:55:28.817Z,23.00
2022-08-16T20:57:56.415Z,23.00
2022-08-16T21:00:24.325Z,22.90
2022-08-16T21:02:52.213Z,22.70
2022-08-16T21:05:25.782Z,22.60
2022-08-16T21:07:58.377Z,22.60
2022-08-16T21:10:26.925Z,22.40
2022-08-16T21:12:59.233Z,22.40
2022-08-16T21:15:27.795Z,22.40
2022-08-16T21:17:55.126Z,22.30
2022-08-16T21:20:25.707Z,22.30
2022-08-16T21:23:02.259Z,22.30
2022-08-16T21:25:31.707Z,22.40
2022-08-16T21:28:39.543Z,22.40
2022-08-16T21:30:47.225Z,22.40
2022-08-16T21:33:17.587Z,22.40
2022-08-16T21:35:47.451Z,22.30
2022-08-16T21:38:30.152Z,22.20
2022-08-16T21:41:00.078Z,22.00
2022-08-16T21:43:32.256Z,22.00
2022-08-16T21:46:04.481Z,21.90
2022-08-16T21:48:34.441Z,21.90
2022-08-16T21:51:08.789Z,21.90
2022-08-16T21:53:37.665Z,21.90
2022-08-16T21:56:06.267Z,21.70
2022-08-16T21:58:34.299Z,21.50
2022-08-16T22:01:03.312Z,21.40
2022-08-16T22:03:34.202Z,21.40
2022-08-16T22:06:13.245Z,21.40
2022-08-16T22:08:50.128Z,21.40
2022-08-16T22:11:23.744Z,21.40
2022-08-16T22:13:58.636Z,21.40
2022-08-16T22:16:29.186Z,21.30
2022-08-16T22:18:56.532Z,21.30
2022-08-16T22:21:24.131Z,21.30
2022-08-16T22:23:55.316Z,21.40
2022-08-16T22:26:29.872Z,21.30
2022-08-16T22:29:04.782Z,21.40
2022-08-16T22:31:33.207Z,21.30
2022-08-16T22:34:02.198Z,21.30
2022-08-16T22:36:30.964Z,21.30
2022-08-16T22:39:00.205Z,21.30
2022-08-16T22:41:29.881Z,21.20
2022-08-16T22:43:57.301Z,21.10
2022-08-16T22:46:24.801Z,21.10
2022-08-16T22:48:52.478Z,21.00
2022-08-16T22:51:21.764Z,21.00
2022-08-16T22:53:49.353Z,20.90
2022-08-16T22:56:17.739Z,20.80
2022-08-16T22:58:46.202Z,20.80
2022-08-16T23:01:15.559Z,20.80
2022-08-16T23:03:43.808Z,20.80
2022-08-16T23:06:12.650Z,20.80
2022-08-16T23:08:41.483Z,20.70
2022-08-16T23:11:21.393Z,20.70
2022-08-16T23:13:54.491Z,20.60
2022-08-16T23:16:32.704Z,20.60
2022-08-16T23:19:07.394Z,20.60
2022-08-16T23:21:37.442Z,20.50
2022-08-16T23:24:06.856Z,20.50
2022-08-16T23:26:44.812Z,20.50
2022-08-16T23:29:25.166Z,20.50
2022-08-16T23:32:11.804Z,20.50
2022-08-16T23:34:39.158Z,20.50
2022-08-16T23:37:06.933Z,20.40
2022-08-16T23:39:36.133Z,20.40
2022-08-16T23:42:13.293Z,20.30
2022-08-16T23:44:55.699Z,20.20
2022-08-16T23:47:26.362Z,20.20
2022-08-16T23:50:02.297Z,20.10
2022-08-16T23:52:40.610Z,20.10
2022-08-16T23:55:18.105Z,20.10
2022-08-16T23:57:46.491Z,20.10
